createdAt,value
2023-01-19T00:03:28.652Z,99092.94
2023-01-19T00:08:31.224Z,99096.50
2023-01-19T00:13:33.858Z,99076.91
2023-01-19T00:18:36.402Z,99078.56
2023-01-19T00:23:39.171Z,99083.81
2023-01-19T00:28:42.438Z,99066.72
2023-01-19T00:33:48.900Z,99079.56
2023-01-19T00:38:51.532Z,99054.88
2023-01-19T00:43:54.135Z,99068.47
2023-01-19T00:48:56.681Z,99065.81
2023-01-19T00:54:05.072Z,99057.22
2023-01-19T00:59:07.737Z,99049.56
2023-01-19T01:04:12.274Z,99068.38
2023-01-19T01:09:14.848Z,99055.50
2023-01-19T01:14:17.717Z,99040.97
2023-01-19T01:19:21.488Z,99037.56
2023-01-19T01:24:24.198Z,99011.03
2023-01-19T01:29:26.828Z,99054.78
2023-01-19T01:34:29.403Z,99048.00
2023-01-19T01:39:31.953Z,99059.91
2023-01-19T01:44:51.725Z,99062.53
2023-01-19T01:50:00.725Z,99058.28
2023-01-19T01:55:07.239Z,99056.59
2023-01-19T02:00:11.341Z,99062.53
2023-01-19T02:05:19.247Z,99066.78
2023-01-19T02:10:40.266Z,99077.84
2023-01-19T02:15:42.818Z,99060.81
2023-01-19T02:21:07.652Z,99051.47
2023-01-19T02:26:14.312Z,99044.59
2023-01-19T02:31:17.805Z,99039.34
2023-01-19T02:36:26.017Z,99016.09
2023-01-19T02:41:34.649Z,99046.03
2023-01-19T02:46:38.451Z,99059.78
2023-01-19T02:51:44.216Z,99035.16
2023-01-19T02:56:53.246Z,99047.97
2023-01-19T03:02:23.367Z,99059.91
2023-01-19T03:07:47.096Z,99041.25
2023-01-19T03:13:22.705Z,99055.88
2023-01-19T03:18:29.809Z,99074.44
2023-01-19T03:23:34.806Z,99064.94
2023-01-19T03:28:40.280Z,99104.38
2023-01-19T03:33:49.522Z,99092.47
2023-01-19T03:38:53.535Z,99079.72
2023-01-19T03:43:57.859Z,99103.59
2023-01-19T03:49:00.784Z,99094.16
2023-01-19T03:54:05.679Z,99087.81
2023-01-19T03:59:08.251Z,99128.16
2023-01-19T04:04:10.805Z,99124.66
2023-01-19T04:09:13.626Z,99138.28
2023-01-19T04:14:16.211Z,99129.72
2023-01-19T04:19:18.865Z,99146.13
2023-01-19T04:24:22.113Z,99133.25
2023-01-19T04:29:25.316Z,99135.88
2023-01-19T04:34:27.941Z,99123.91
2023-01-19T04:39:31.110Z,99135.91
2023-01-19T04:44:33.819Z,99152.06
2023-01-19T04:49:39.367Z,99141.91
2023-01-19T04:54:41.924Z,99151.25
2023-01-19T04:59:44.620Z,99151.28
2023-01-19T05:04:47.150Z,99174.41
2023-01-19T05:09:49.816Z,99171.88
2023-01-19T05:14:52.384Z,99162.44
2023-01-19T05:19:54.985Z,99192.38
2023-01-19T05:24:58.113Z,99178.66
2023-01-19T05:30:05.046Z,99199.28
2023-01-19T05:35:08.248Z,99196.00
2023-01-19T05:40:11.715Z,99206.22
2023-01-19T05:45:15.553Z,99218.94
2023-01-19T05:50:18.160Z,99226.59
2023-01-19T05:55:21.198Z,99238.59
2023-01-19T06:00:24.680Z,99256.63
2023-01-19T06:05:27.520Z,99251.56
2023-01-19T06:10:30.108Z,99238.75
2023-01-19T06:15:32.672Z,99273.00
2023-01-19T06:20:36.444Z,99278.19
2023-01-19T06:25:39.257Z,99270.41
2023-01-19T06:30:41.895Z,99295.31
2023-01-19T06:35:48.882Z,99274.00
2023-01-19T06:41:02.838Z,99267.19
2023-01-19T06:46:06.158Z,99277.47
2023-01-19T06:51:08.689Z,99286.16
2023-01-19T06:56:11.374Z,99302.50
2023-01-19T07:01:14.498Z,99288.03
2023-01-19T07:06:17.081Z,99298.34
2023-01-19T07:11:24.773Z,99298.28
2023-01-19T07:16:32.707Z,99303.47
2023-01-19T07:21:35.326Z,99313.06
2023-01-19T07:26:37.954Z,99304.44
2023-01-19T07:31:40.544Z,99325.06
2023-01-19T07:36:44.173Z,99336.16
2023-01-19T07:41:48.815Z,99350.00
2023-01-19T07:46:51.439Z,99364.38
2023-01-19T07:51:56.380Z,99336.16
2023-01-19T07:57:00.702Z,99365.19
2023-01-19T08:02:03.488Z,99383.34
2023-01-19T08:07:07.743Z,99374.78
2023-01-19T08:12:10.290Z,99391.09
2023-01-19T08:17:14.108Z,99416.69
2023-01-19T08:22:16.769Z,99435.47
2023-01-19T08:27:19.281Z,99436.31
2023-01-19T08:32:21.886Z,99447.47
2023-01-19T08:37:24.906Z,99391.88
2023-01-19T08:42:28.193Z,99422.06
2023-01-19T08:47:30.831Z,99432.38
2023-01-19T08:52:33.467Z,99416.03
2023-01-19T08:57:36.183Z,99419.50
2023-01-19T09:02:38.768Z,99406.72
2023-01-19T09:07:41.860Z,99395.50
2023-01-19T09:12:45.144Z,99415.44
2023-01-19T09:17:47.742Z,99384.50
2023-01-19T09:22:50.401Z,99391.41
2023-01-19T09:27:53.211Z,99389.59
2023-01-19T09:32:55.771Z,99381.06
2023-01-19T09:37:59.204Z,99386.22
2023-01-19T09:43:22.801Z,99388.91
2023-01-19T09:48:57.904Z,99435.84
2023-01-19T09:54:06.570Z,99405.91
2023-01-19T09:59:30.392Z,99413.47
2023-01-19T10:04:54.641Z,99402.50
2023-01-19T10:10:03.226Z,99415.38
2023-01-19T10:15:37.744Z,99429.88
2023-01-19T10:21:11.973Z,99406.97
2023-01-19T10:26:23.503Z,99407.13
2023-01-19T10:31:26.219Z,99414.78
2023-01-19T10:36:39.966Z,99399.28
2023-01-19T10:41:53.739Z,99423.38
2023-01-19T10:46:58.834Z,99429.34
2023-01-19T10:52:02.563Z,99417.31
2023-01-19T10:57:09.280Z,99398.59
2023-01-19T11:02:31.674Z,99416.75
2023-01-19T11:07:35.142Z,99432.09
2023-01-19T11:12:45.987Z,99435.31
2023-01-19T11:17:50.433Z,99416.53
2023-01-19T11:23:05.704Z,99424.22
2023-01-19T11:28:20.843Z,99439.41
2023-01-19T11:33:50.576Z,99418.63
2023-01-19T11:38:56.137Z,99442.50
2023-01-19T11:44:12.115Z,99434.81
2023-01-19T11:49:27.539Z,99437.44
2023-01-19T11:54:36.137Z,99453.53
2023-01-19T11:59:38.701Z,99480.06
2023-01-19T12:04:44.586Z,99487.00
2023-01-19T12:09:53.178Z,99493.72
2023-01-19T12:15:08.786Z,99488.50
2023-01-19T12:20:35.599Z,99511.69
2023-01-19T12:25:53.952Z,99502.22
2023-01-19T12:30:59.748Z,99497.25
2023-01-19T12:36:17.395Z,99518.53
2023-01-19T12:41:19.864Z,99526.88
2023-01-19T12:46:30.299Z,99519.19
2023-01-19T12:51:33.409Z,99474.47
2023-01-19T12:56:38.676Z,99495.13
2023-01-19T13:01:41.315Z,99496.81
2023-01-19T13:06:49.897Z,99499.38
2023-01-19T13:12:21.397Z,99498.28
2023-01-19T13:17:28.556Z,99503.41
2023-01-19T13:22:51.378Z,99504.31
2023-01-19T13:27:57.088Z,99494.97
2023-01-19T13:33:19.770Z,99491.72
2023-01-19T13:38:24.333Z,99491.63
2023-01-19T13:43:36.662Z,99496.44
2023-01-19T13:48:39.746Z,99496.00
2023-01-19T13:53:53.973Z,99539.06
2023-01-19T13:59:12.733Z,99527.03
2023-01-19T14:04:32.676Z,99537.97
2023-01-19T14:09:35.908Z,99544.69
2023-01-19T14:14:38.875Z,99542.91
2023-01-19T14:19:51.910Z,99551.53
2023-01-19T14:24:54.605Z,99528.59
2023-01-19T14:30:21.494Z,99541.19
2023-01-19T14:35:25.850Z,99551.41
2023-01-19T14:40:29.768Z,99564.91
2023-01-19T14:45:43.291Z,99590.66
2023-01-19T14:51:02.038Z,99568.75
2023-01-19T14:56:06.908Z,99545.31
2023-01-19T15:01:09.604Z,99527.31
2023-01-19T15:06:15.659Z,99526.94
2023-01-19T15:11:22.277Z,99563.38
2023-01-19T15:16:27.490Z,99570.28
2023-01-19T15:21:30.209Z,99565.47
2023-01-19T15:26:33.061Z,99550.00
2023-01-19T15:31:36.154Z,99559.56
2023-01-19T15:36:38.913Z,99543.13
2023-01-19T15:41:41.576Z,99487.03
2023-01-19T15:46:44.328Z,99529.09
2023-01-19T15:51:46.885Z,99533.50
2023-01-19T15:56:49.540Z,99495.16
2023-01-19T16:01:52.588Z,99495.88
2023-01-19T16:06:55.232Z,99505.13
2023-01-19T16:11:57.838Z,99498.13
2023-01-19T16:17:01.833Z,99495.72
2023-01-19T16:22:05.690Z,99479.66
2023-01-19T16:27:08.995Z,99477.84
2023-01-19T16:32:11.600Z,99471.88
2023-01-19T16:37:14.326Z,99467.31
2023-01-19T16:42:17.065Z,99453.63
2023-01-19T16:47:19.626Z,99466.69
2023-01-19T16:52:24.872Z,99459.66
2023-01-19T16:57:27.398Z,99464.53
2023-01-19T17:02:30.096Z,99460.25
2023-01-19T17:07:32.740Z,99490.34
2023-01-19T17:12:35.324Z,99477.63
2023-01-19T17:17:38.142Z,99446.81
2023-01-19T17:22:40.860Z,99487.03
2023-01-19T17:27:43.390Z,99471.59
2023-01-19T17:32:46.063Z,99475.00
2023-01-19T17:37:48.743Z,99466.53
2023-01-19T17:42:51.506Z,99469.91
2023-01-19T17:47:54.044Z,99469.91
2023-01-19T17:52:56.701Z,99467.34
2023-01-19T17:58:00.425Z,99455.44
2023-01-19T18:03:04.167Z,99439.94
2023-01-19T18:08:06.850Z,99464.31
2023-01-19T18:13:09.364Z,99459.09
2023-01-19T18:18:11.973Z,99452.34
2023-01-19T18:23:14.630Z,99448.06
2023-01-19T18:28:17.259Z,99448.91
2023-01-19T18:33:20.218Z,99438.38
2023-01-19T18:38:22.821Z,99434.13
2023-01-19T18:43:25.502Z,99434.84
2023-01-19T18:48:28.061Z,99436.66
2023-01-19T18:53:31.626Z,99437.94
2023-01-19T18:58:37.139Z,99437.84
2023-01-19T19:03:39.766Z,99443.97
2023-01-19T19:08:44.228Z,99438.97
2023-01-19T19:13:50.942Z,99457.78
2023-01-19T19:18:53.666Z,99451.81
2023-01-19T19:23:58.622Z,99456.13
2023-01-19T19:29:01.784Z,99458.47
2023-01-19T19:34:04.531Z,99462.03
2023-01-19T19:39:07.094Z,99444.00
2023-01-19T19:44:15.558Z,99416.44
2023-01-19T19:49:21.470Z,99451.72
2023-01-19T19:54:24.095Z,99441.53
2023-01-19T19:59:26.613Z,99422.41
2023-01-19T20:04:29.273Z,99445.03
2023-01-19T20:09:32.879Z,99440.69
2023-01-19T20:14:35.429Z,99420.97
2023-01-19T20:19:38.112Z,99405.53
2023-01-19T20:24:40.792Z,99401.41
2023-01-19T20:29:43.481Z,99387.63
2023-01-19T20:34:46.098Z,99407.34
2023-01-19T20:39:48.941Z,99415.81
2023-01-19T20:44:51.976Z,99402.13
2023-01-19T20:49:54.618Z,99396.28
2023-01-19T20:54:57.232Z,99403.16
2023-01-19T20:59:59.839Z,99424.47
2023-01-19T21:05:02.533Z,99393.13
2023-01-19T21:10:05.899Z,99399.19
2023-01-19T21:15:09.253Z,99400.13
2023-01-19T21:20:12.220Z,99398.47
2023-01-19T21:25:15.064Z,99400.41
2023-01-19T21:30:18.916Z,99391.84
2023-01-19T21:35:21.741Z,99403.78
2023-01-19T21:40:24.271Z,99397.88
2023-01-19T21:45:26.845Z,99391.03
2023-01-19T21:50:29.439Z,99395.31
2023-01-19T21:55:32.526Z,99396.19
2023-01-19T22:00:35.134Z,99392.91
2023-01-19T22:05:37.891Z,99374.03
2023-01-19T22:10:40.413Z,99352.69
2023-01-19T22:15:42.946Z,99404.00
2023-01-19T22:20:45.477Z,99402.22
2023-01-19T22:25:47.985Z,99366.25
2023-01-19T22:30:50.724Z,99383.63
2023-01-19T22:35:53.359Z,99386.25
2023-01-19T22:40:56.157Z,99364.91
2023-01-19T22:45:59.164Z,99395.72
2023-01-19T22:51:01.804Z,99392.28
2023-01-19T22:56:18.446Z,99399.19
2023-01-19T23:01:29.173Z,99397.41
2023-01-19T23:06:34.722Z,99377.66
2023-01-19T23:11:40.430Z,99398.25
2023-01-19T23:16:43.068Z,99398.13
2023-01-19T23:21:45.886Z,99384.56
2023-01-19T23:26:51.285Z,99389.75
2023-01-19T23:31:56.044Z,99393.31
2023-01-19T23:36:58.572Z,99400.25
2023-01-19T23:42:01.171Z,99395.94
2023-01-19T23:47:03.682Z,99414.81
2023-01-19T23:52:06.218Z,99419.94
2023-01-19T23:57:08.738Z,99417.41
